Gis-linda — WDF6980 — position and weather

sailwx.info

Track history (hours):
 
Tides and Currents Weather Stations Pressure Air Temp Water Temp Dewpoint Dewpoint Depression Visibility Wind Speed Wind Dir Waves Ship Positions

Gis-linda

Owner: GIS Marine LLC, Galliano, LA. More information available from US FCC via Universal Licensing System and Coast Guard Vessel Documentation Center.

Last reported at 2017-Sep-14 09:18 UTC. Time now 2017-Sep-26 11:14 UTC.
Position N 29°33' W 092°18'.
Warning: this ship's position is 12 days out of date.

Type: Cargo ship. MMSI: 367479870.

Date/timePositionNaut miles runAvg speedWind from/ knotsBaromVisibWave heightAir tempDewpointWater temp
2017-Sep-14 09:18N 29°33' W 092°18'1 0.8
2017-Sep-14 08:00N 29°34' W 092°18'3 6.5
2017-Sep-14 07:30N 29°37' W 092°17'4 7.2
2017-Sep-14 07:00N 29°40' W 092°15'4 8.1
2017-Sep-14 06:30N 29°44' W 092°14'3 6.5
2017-Sep-14 06:00N 29°46' W 092°11'2 4.8
2017-Sep-14 05:30N 29°47' W 092°09'0 0.4
2017-Sep-14 05:00N 29°48' W 092°09'0 0.0
2017-Sep-14 04:30N 29°48' W 092°09'0 0.0
2017-Sep-14 04:00N 29°48' W 092°09'0 0.0
2017-Sep-14 03:30N 29°48' W 092°09'0 0.0
2017-Sep-14 03:00N 29°48' W 092°09'0 0.1
2017-Sep-14 02:30N 29°48' W 092°09'0 0.0
2017-Sep-14 02:00N 29°48' W 092°09'0 0.0
2017-Sep-14 01:30N 29°48' W 092°09'0 0.0
2017-Sep-14 01:01N 29°48' W 092°09'0 0.0
2017-Sep-14 00:30N 29°48' W 092°09'0 0.1
2017-Sep-14 00:00N 29°48' W 092°09'0 0.0
2017-Sep-13 23:30N 29°48' W 092°09'0 0.0
2017-Sep-13 23:00N 29°48' W 092°09'0 0.9
2017-Sep-13 22:30N 29°47' W 092°09'3 6.7
2017-Sep-13 22:00N 29°45' W 092°12'4 8.0
2017-Sep-13 21:28N 29°42' W 092°15'4 7.9
2017-Sep-13 21:01N 29°38' W 092°16'4 0.1
2017-Sep-11 19:49N 29°35' W 092°18'2 7.7
2017-Sep-11 19:30N 29°37' W 092°16'4 7.6
2017-Sep-11 19:01N 29°41' W 092°15'4 7.7
2017-Sep-11 18:30N 29°45' W 092°13'4 7.7
2017-Sep-11 18:00N 29°47' W 092°10'1 2.7
2017-Sep-11 17:30N 29°48' W 092°09'0 0.0
2017-Sep-11 17:00N 29°48' W 092°09'0 0.0
2017-Sep-11 16:30N 29°48' W 092°09'0 0.0
2017-Sep-11 16:00N 29°48' W 092°09'0 0.0
2017-Sep-11 15:31N 29°48' W 092°09'0 0.0
2017-Sep-11 14:59N 29°48' W 092°09'0 0.0
2017-Sep-11 14:30N 29°48' W 092°09'0 0.0
2017-Sep-11 14:00N 29°48' W 092°09'0 0.3
2017-Sep-11 13:29N 29°47' W 092°09'0 0.2
2017-Sep-11 12:59N 29°47' W 092°09'0 0.0
2017-Sep-11 12:29N 29°47' W 092°09'1 2.7
2017-Sep-11 12:00N 29°47' W 092°10'1 1.8
2017-Sep-11 11:29N 29°47' W 092°11'0 0.0
2017-Sep-11 11:00N 29°47' W 092°11'0 0.0
2017-Sep-11 10:30N 29°47' W 092°11'0 0.0
2017-Sep-11 09:59N 29°47' W 092°11'0 0.0
2017-Sep-11 09:31N 29°47' W 092°11'0 0.0
2017-Sep-11 09:00N 29°47' W 092°11'0 0.0
2017-Sep-11 08:29N 29°47' W 092°11'0 0.0
2017-Sep-11 08:00N 29°47' W 092°11'0 0.0
2017-Sep-11 07:29N 29°47' W 092°11'0 0.0
2017-Sep-11 06:59N 29°47' W 092°11'0 0.0
2017-Sep-11 06:29N 29°47' W 092°11'0 0.0
2017-Sep-11 05:57N 29°47' W 092°11'0 0.0
2017-Sep-11 05:29N 29°47' W 092°11'0 0.0
2017-Sep-11 05:00N 29°47' W 092°11'0 0.0
2017-Sep-11 04:28N 29°47' W 092°11'0 0.0
2017-Sep-11 04:00N 29°47' W 092°11'0 0.0
2017-Sep-11 03:30N 29°47' W 092°11'0 0.0
2017-Sep-11 02:59N 29°47' W 092°11'0 0.0
2017-Sep-11 02:30N 29°47' W 092°11'0 0.0
2017-Sep-11 01:59N 29°47' W 092°11'0 0.0
2017-Sep-11 01:30N 29°47' W 092°11'0 0.0
2017-Sep-11 01:00N 29°47' W 092°11'0 0.0
2017-Sep-11 00:30N 29°47' W 092°11'0 0.0
2017-Sep-11 00:00N 29°47' W 092°11'0 0.0
2017-Sep-10 23:30N 29°47' W 092°11'0 0.0
2017-Sep-10 23:00N 29°47' W 092°11'0 0.0
2017-Sep-10 22:30N 29°47' W 092°11'0 0.0
2017-Sep-10 22:00N 29°47' W 092°11'0 0.0
2017-Sep-10 21:30N 29°47' W 092°11'0 0.0
2017-Sep-10 21:00N 29°47' W 092°11'0 0.0
2017-Sep-10 20:30N 29°47' W 092°11'0 0.0
2017-Sep-10 20:01N 29°47' W 092°11'0 0.0
2017-Sep-10 19:30N 29°47' W 092°11'0 0.0
2017-Sep-10 19:00N 29°47' W 092°11'0 0.0
2017-Sep-10 18:30N 29°47' W 092°11'0 0.0
2017-Sep-10 18:00N 29°47' W 092°11'0 0.0
2017-Sep-10 17:31N 29°47' W 092°11'0 0.0
2017-Sep-10 17:01N 29°47' W 092°11'0 0.0
2017-Sep-10 16:31N 29°47' W 092°11'0 0.0
2017-Sep-10 16:00N 29°47' W 092°11'0 0.0
2017-Sep-10 15:31N 29°47' W 092°11'0 0.0
2017-Sep-10 15:01N 29°47' W 092°11'0 0.0
2017-Sep-10 14:01N 29°47' W 092°11'0 0.0
2017-Sep-10 13:27N 29°47' W 092°11'0 0.0
2017-Sep-10 12:59N 29°47' W 092°11'0 0.0
2017-Sep-10 12:30N 29°47' W 092°11'0 0.0
2017-Sep-10 11:59N 29°47' W 092°11'0 0.0
2017-Sep-10 11:29N 29°47' W 092°11'0 0.0
2017-Sep-10 10:59N 29°47' W 092°11'0 0.0
2017-Sep-10 10:29N 29°47' W 092°11'0 0.0
2017-Sep-10 10:01N 29°47' W 092°11'0 0.0
2017-Sep-10 09:30N 29°47' W 092°11'0 0.0
2017-Sep-10 09:01N 29°47' W 092°11'0 0.0
2017-Sep-10 08:31N 29°47' W 092°11'0 0.0
2017-Sep-10 07:58N 29°47' W 092°11'0 0.0
2017-Sep-10 07:31N 29°47' W 092°11'0 0.0
2017-Sep-10 07:00N 29°47' W 092°11'0 0.0
2017-Sep-10 06:31N 29°47' W 092°11'0 0.0
2017-Sep-10 06:01N 29°47' W 092°11'0 0.0
2017-Sep-10 05:30N 29°47' W 092°11'0 0.0
2017-Sep-10 05:01N 29°47' W 092°11'0 0.0
2017-Sep-10 04:30N 29°47' W 092°11'0 0.0
2017-Sep-10 04:01N 29°47' W 092°11'0 0.0
2017-Sep-10 03:31N 29°47' W 092°11'0 0.0
2017-Sep-10 03:01N 29°47' W 092°11'0 0.0
2017-Sep-10 02:31N 29°47' W 092°11'0 0.0
2017-Sep-10 02:01N 29°47' W 092°11'0 0.0
2017-Sep-10 01:31N 29°47' W 092°11'0 0.0
2017-Sep-10 01:01N 29°47' W 092°11'0 0.0
2017-Sep-10 00:31N 29°47' W 092°11'0 0.0
2017-Sep-10 00:01N 29°47' W 092°11'0 0.0
2017-Sep-09 23:31N 29°47' W 092°11'0 0.0
2017-Sep-09 23:01N 29°47' W 092°11'0 0.0
2017-Sep-09 22:31N 29°47' W 092°11'0 0.0
2017-Sep-09 22:01N 29°47' W 092°11'0 0.0
2017-Sep-09 21:31N 29°47' W 092°11'0 0.0
2017-Sep-09 21:01N 29°47' W 092°11'0 0.0
2017-Sep-09 20:31N 29°47' W 092°11'0 0.0
2017-Sep-09 20:01N 29°47' W 092°11'0 0.0
2017-Sep-09 19:31N 29°47' W 092°11'0 0.0
2017-Sep-09 19:01N 29°47' W 092°11'0 0.0
2017-Sep-09 18:31N 29°47' W 092°11'0 0.0
2017-Sep-09 18:01N 29°47' W 092°11'0 0.0
2017-Sep-09 17:31N 29°47' W 092°11'0 0.0
2017-Sep-09 17:01N 29°47' W 092°11'0 0.0
2017-Sep-09 16:31N 29°47' W 092°11'0 0.0
2017-Sep-09 16:01N 29°47' W 092°11'0 0.0
2017-Sep-09 15:30N 29°47' W 092°11'0 0.0
2017-Sep-09 15:01N 29°47' W 092°11'0 0.0
2017-Sep-09 14:29N 29°47' W 092°11'0 0.0
2017-Sep-09 13:58N 29°47' W 092°11'0 0.0
2017-Sep-09 13:29N 29°47' W 092°11'0 0.0
2017-Sep-09 13:01N 29°47' W 092°11'0 0.0
2017-Sep-09 12:31N 29°47' W 092°11'0 0.0
2017-Sep-09 12:01N 29°47' W 092°11'0 0.0
2017-Sep-09 11:30N 29°47' W 092°11'0 0.0
2017-Sep-09 10:59N 29°47' W 092°11'0 0.0
2017-Sep-09 10:30N 29°47' W 092°11'0 0.0
2017-Sep-09 09:58N 29°47' W 092°11'0 0.0
2017-Sep-09 09:31N 29°47' W 092°11'0 0.0
2017-Sep-09 08:58N 29°47' W 092°11'0 0.0
2017-Sep-09 08:31N 29°47' W 092°11'0 0.0
2017-Sep-09 07:59N 29°47' W 092°11'0 0.0
2017-Sep-09 07:31N 29°47' W 092°11'0 0.0
2017-Sep-09 07:01N 29°47' W 092°11'0 0.0
2017-Sep-09 06:31N 29°47' W 092°11'0 0.0
2017-Sep-09 06:00N 29°47' W 092°11'0 0.0
2017-Sep-09 05:31N 29°47' W 092°11'0 0.0
2017-Sep-09 05:01N 29°47' W 092°11'0 0.0
2017-Sep-09 04:31N 29°47' W 092°11'0 0.0
2017-Sep-09 03:51N 29°47' W 092°11'0 0.0
2017-Sep-09 03:31N 29°47' W 092°11'0 0.0
2017-Sep-09 03:01N 29°47' W 092°11'0 0.0
2017-Sep-09 02:31N 29°47' W 092°11'0 0.0
2017-Sep-09 02:01N 29°47' W 092°11'0 0.0
2017-Sep-09 01:28N 29°47' W 092°11'0 0.0
2017-Sep-09 01:01N 29°47' W 092°11'0 0.0
2017-Sep-09 00:31N 29°47' W 092°11'0 0.0
2017-Sep-09 00:01N 29°47' W 092°11'0 0.0
2017-Sep-08 23:31N 29°47' W 092°11'0 0.0
2017-Sep-08 23:01N 29°47' W 092°11'0 0.0
2017-Sep-08 22:31N 29°47' W 092°11'0 0.0
2017-Sep-08 22:01N 29°47' W 092°11'0 0.0
2017-Sep-08 21:31N 29°47' W 092°11'0 0.0
2017-Sep-08 21:01N 29°47' W 092°11'0 0.0
2017-Sep-08 20:30N 29°47' W 092°11'0 0.0
2017-Sep-08 20:00N 29°47' W 092°11'0 0.0
2017-Sep-08 19:31N 29°47' W 092°11'0 0.0
2017-Sep-08 19:00N 29°47' W 092°11'0 0.0
2017-Sep-08 18:31N 29°47' W 092°11'0 0.0
2017-Sep-08 18:01N 29°47' W 092°11'0 0.0
2017-Sep-08 17:31N 29°47' W 092°11'0 0.0
2017-Sep-08 17:01N 29°47' W 092°11'0 0.0
2017-Sep-08 16:31N 29°47' W 092°11'0 0.0
2017-Sep-08 16:01N 29°47' W 092°11'0 0.0
2017-Sep-08 15:31N 29°47' W 092°11'0 0.0
2017-Sep-08 15:00N 29°47' W 092°11'0 0.0
2017-Sep-08 14:31N 29°47' W 092°11'0 0.0
2017-Sep-08 14:01N 29°47' W 092°11'0 0.0
2017-Sep-08 13:31N 29°47' W 092°11'0 0.0
2017-Sep-08 13:01N 29°47' W 092°11'0 0.0
2017-Sep-08 12:31N 29°47' W 092°11'0 0.0
2017-Sep-08 12:01N 29°47' W 092°11'0 0.0
2017-Sep-08 11:31N 29°47' W 092°11'0 0.0
2017-Sep-08 11:00N 29°47' W 092°11'0 0.0
2017-Sep-08 10:31N 29°47' W 092°11'0 0.0
2017-Sep-08 10:00N 29°47' W 092°11'0 0.0
2017-Sep-08 09:31N 29°47' W 092°11'0 0.0
2017-Sep-08 09:01N 29°47' W 092°11'0 0.0
2017-Sep-08 08:29N 29°47' W 092°11'0 0.0
2017-Sep-08 08:00N 29°47' W 092°11'0 0.0
2017-Sep-08 07:31N 29°47' W 092°11'0 0.0
2017-Sep-08 07:00N 29°47' W 092°11'0 0.0
2017-Sep-08 06:31N 29°47' W 092°11'0 0.0
2017-Sep-08 06:01N 29°47' W 092°11'0 0.0
2017-Sep-08 05:31N 29°47' W 092°11'0 0.0
2017-Sep-08 05:01N 29°47' W 092°11'0 0.0
2017-Sep-08 04:31N 29°47' W 092°11'0 0.0
2017-Sep-08 04:00N 29°47' W 092°11'0 0.0
2017-Sep-08 03:30N 29°47' W 092°11'0 0.0
2017-Sep-08 03:01N 29°47' W 092°11'0 0.0
2017-Sep-08 02:31N 29°47' W 092°11'0 0.0
2017-Sep-08 02:01N 29°47' W 092°11'0 0.0
2017-Sep-08 01:31N 29°47' W 092°11'0 0.0
2017-Sep-08 01:00N 29°47' W 092°11'0 0.0
2017-Sep-08 00:30N 29°47' W 092°11'0 0.0
2017-Sep-08 00:00N 29°47' W 092°11'0 0.0
2017-Sep-07 23:30N 29°47' W 092°11'0 0.0
2017-Sep-07 23:00N 29°47' W 092°11'0 0.0
2017-Sep-07 22:30N 29°47' W 092°11'0 0.0
2017-Sep-07 22:00N 29°47' W 092°11'0 0.0
2017-Sep-07 21:30N 29°47' W 092°11'0 0.0
2017-Sep-07 21:00N 29°47' W 092°11'0 0.0
2017-Sep-07 20:30N 29°47' W 092°11'0 0.0
2017-Sep-07 20:00N 29°47' W 092°11'0 0.0
2017-Sep-07 19:30N 29°47' W 092°11'0 0.0
2017-Sep-07 19:00N 29°47' W 092°11'0 0.0
2017-Sep-07 18:30N 29°47' W 092°11'0 0.0
2017-Sep-07 18:00N 29°47' W 092°11'0 0.0
2017-Sep-07 17:30N 29°47' W 092°11'0 0.0
2017-Sep-07 17:00N 29°47' W 092°11'0 0.0
2017-Sep-07 16:30N 29°47' W 092°11'0 0.0
2017-Sep-07 16:00N 29°47' W 092°11'0 0.0
2017-Sep-07 15:30N 29°47' W 092°11'0 0.0
2017-Sep-07 15:00N 29°47' W 092°11'0 0.0
2017-Sep-07 14:30N 29°47' W 092°11'0 0.0
2017-Sep-07 13:57N 29°47' W 092°11'0 0.0
2017-Sep-07 13:30N 29°47' W 092°11'0 0.0
2017-Sep-07 13:00N 29°47' W 092°11'0 0.0
2017-Sep-07 12:30N 29°47' W 092°11'0 0.0
2017-Sep-07 12:00N 29°47' W 092°11'0 0.0
2017-Sep-07 11:30N 29°47' W 092°11'0 0.0
2017-Sep-07 11:00N 29°47' W 092°11'0 0.0
2017-Sep-07 10:30N 29°47' W 092°11'0 0.0
2017-Sep-07 10:00N 29°47' W 092°11'0 0.0
2017-Sep-07 09:30N 29°47' W 092°11'0 0.0
2017-Sep-07 09:00N 29°47' W 092°11'0 0.0
2017-Sep-07 08:30N 29°47' W 092°11'0 0.0
2017-Sep-07 08:00N 29°47' W 092°11'0 0.0
2017-Sep-07 07:30N 29°47' W 092°11'0 0.0
2017-Sep-07 07:00N 29°47' W 092°11'0 0.0
2017-Sep-07 06:30N 29°47' W 092°11'0 0.0
2017-Sep-07 06:00N 29°47' W 092°11'0 0.0
2017-Sep-07 05:30N 29°47' W 092°11'0 0.0
2017-Sep-07 05:00N 29°47' W 092°11'0 0.0
2017-Sep-07 04:30N 29°47' W 092°11'0 0.0
2017-Sep-07 04:00N 29°47' W 092°11'0 0.0
2017-Sep-07 03:30N 29°47' W 092°11'0 0.0
2017-Sep-07 03:00N 29°47' W 092°11'0 0.0
2017-Sep-07 02:30N 29°47' W 092°11'0 0.0
2017-Sep-07 02:00N 29°47' W 092°11'0 0.0
2017-Sep-07 01:30N 29°47' W 092°11'0 0.0
2017-Sep-07 01:00N 29°47' W 092°11'0 0.0
2017-Sep-07 00:30N 29°47' W 092°11'0 0.0
2017-Sep-07 00:00N 29°47' W 092°11'0 0.0
2017-Sep-06 23:30N 29°47' W 092°11'0 0.0
2017-Sep-06 23:00N 29°47' W 092°11'0 0.0
2017-Sep-06 22:30N 29°47' W 092°11'0 0.0
2017-Sep-06 22:00N 29°47' W 092°11'0 0.0
2017-Sep-06 21:30N 29°47' W 092°11'0 0.3
2017-Sep-06 21:00N 29°47' W 092°11'0 0.0
2017-Sep-06 20:30N 29°47' W 092°11'0 0.0
2017-Sep-06 20:00N 29°47' W 092°11'0 0.0
2017-Sep-06 19:30N 29°47' W 092°11'0 0.0
2017-Sep-06 19:00N 29°47' W 092°11'0 0.5
2017-Sep-06 18:30N 29°47' W 092°11'0 0.0
2017-Sep-06 18:00N 29°47' W 092°11'0 0.0
2017-Sep-06 17:30N 29°47' W 092°11'0 0.0
2017-Sep-06 17:00N 29°47' W 092°11'0 0.0
2017-Sep-06 16:30N 29°47' W 092°11'0 0.0
2017-Sep-06 16:00N 29°47' W 092°11'0 0.0
2017-Sep-06 15:30N 29°47' W 092°11'0 0.0
2017-Sep-06 15:00N 29°47' W 092°11'0 0.0
2017-Sep-06 14:30N 29°47' W 092°11'0 0.0
2017-Sep-06 14:00N 29°47' W 092°11'0 0.0
2017-Sep-06 13:30N 29°47' W 092°11'0 0.0
2017-Sep-06 13:00N 29°47' W 092°11'0 0.0
2017-Sep-06 12:30N 29°47' W 092°11'0 0.0
2017-Sep-06 12:00N 29°47' W 092°11'0 0.0
2017-Sep-06 11:30N 29°47' W 092°11'0 0.0
2017-Sep-06 11:00N 29°47' W 092°11'1 2.8
2017-Sep-06 10:30N 29°46' W 092°12'4 8.0
2017-Sep-06 10:00N 29°43' W 092°15'4 7.5
2017-Sep-06 09:30N 29°39' W 092°16'  
Track history (hours):
 
Tides and Currents Weather Stations Pressure Air Temp Water Temp Dewpoint Dewpoint Depression Visibility Wind Speed Wind Dir Waves Ship Positions

Gis-linda

Owner: GIS Marine LLC, Galliano, LA. More information available from US FCC via Universal Licensing System and Coast Guard Vessel Documentation Center.

Last reported at 2017-Sep-14 09:18 UTC. Time now 2017-Sep-26 11:14 UTC.
Position N 29°33' W 092°18'.
Warning: this ship's position is 12 days out of date.

Type: Cargo ship. MMSI: 367479870.

Date/timePositionNaut miles runAvg speedWind from/ knotsBaromVisibWave heightAir tempDewpointWater temp
2017-Sep-14 09:18N 29°33' W 092°18'1 0.8
2017-Sep-14 08:00N 29°34' W 092°18'3 6.5
2017-Sep-14 07:30N 29°37' W 092°17'4 7.2
2017-Sep-14 07:00N 29°40' W 092°15'4 8.1
2017-Sep-14 06:30N 29°44' W 092°14'3 6.5
2017-Sep-14 06:00N 29°46' W 092°11'2 4.8
2017-Sep-14 05:30N 29°47' W 092°09'0 0.4
2017-Sep-14 05:00N 29°48' W 092°09'0 0.0
2017-Sep-14 04:30N 29°48' W 092°09'0 0.0
2017-Sep-14 04:00N 29°48' W 092°09'0 0.0
2017-Sep-14 03:30N 29°48' W 092°09'0 0.0
2017-Sep-14 03:00N 29°48' W 092°09'0 0.1
2017-Sep-14 02:30N 29°48' W 092°09'0 0.0
2017-Sep-14 02:00N 29°48' W 092°09'0 0.0
2017-Sep-14 01:30N 29°48' W 092°09'0 0.0
2017-Sep-14 01:01N 29°48' W 092°09'0 0.0
2017-Sep-14 00:30N 29°48' W 092°09'0 0.1
2017-Sep-14 00:00N 29°48' W 092°09'0 0.0
2017-Sep-13 23:30N 29°48' W 092°09'0 0.0
2017-Sep-13 23:00N 29°48' W 092°09'0 0.9
2017-Sep-13 22:30N 29°47' W 092°09'3 6.7
2017-Sep-13 22:00N 29°45' W 092°12'4 8.0
2017-Sep-13 21:28N 29°42' W 092°15'4 7.9
2017-Sep-13 21:01N 29°38' W 092°16'4 0.1
2017-Sep-11 19:49N 29°35' W 092°18'2 7.7
2017-Sep-11 19:30N 29°37' W 092°16'4 7.6
2017-Sep-11 19:01N 29°41' W 092°15'4 7.7
2017-Sep-11 18:30N 29°45' W 092°13'4 7.7
2017-Sep-11 18:00N 29°47' W 092°10'1 2.7
2017-Sep-11 17:30N 29°48' W 092°09'0 0.0
2017-Sep-11 17:00N 29°48' W 092°09'0 0.0
2017-Sep-11 16:30N 29°48' W 092°09'0 0.0
2017-Sep-11 16:00N 29°48' W 092°09'0 0.0
2017-Sep-11 15:31N 29°48' W 092°09'0 0.0
2017-Sep-11 14:59N 29°48' W 092°09'0 0.0
2017-Sep-11 14:30N 29°48' W 092°09'0 0.0
2017-Sep-11 14:00N 29°48' W 092°09'0 0.3
2017-Sep-11 13:29N 29°47' W 092°09'0 0.2
2017-Sep-11 12:59N 29°47' W 092°09'0 0.0
2017-Sep-11 12:29N 29°47' W 092°09'1 2.7
2017-Sep-11 12:00N 29°47' W 092°10'1 1.8
2017-Sep-11 11:29N 29°47' W 092°11'0 0.0
2017-Sep-11 11:00N 29°47' W 092°11'0 0.0
2017-Sep-11 10:30N 29°47' W 092°11'0 0.0
2017-Sep-11 09:59N 29°47' W 092°11'0 0.0
2017-Sep-11 09:31N 29°47' W 092°11'0 0.0
2017-Sep-11 09:00N 29°47' W 092°11'0 0.0
2017-Sep-11 08:29N 29°47' W 092°11'0 0.0
2017-Sep-11 08:00N 29°47' W 092°11'0 0.0
2017-Sep-11 07:29N 29°47' W 092°11'0 0.0
2017-Sep-11 06:59N 29°47' W 092°11'0 0.0
2017-Sep-11 06:29N 29°47' W 092°11'0 0.0
2017-Sep-11 05:57N 29°47' W 092°11'0 0.0
2017-Sep-11 05:29N 29°47' W 092°11'0 0.0
2017-Sep-11 05:00N 29°47' W 092°11'0 0.0
2017-Sep-11 04:28N 29°47' W 092°11'0 0.0
2017-Sep-11 04:00N 29°47' W 092°11'0 0.0
2017-Sep-11 03:30N 29°47' W 092°11'0 0.0
2017-Sep-11 02:59N 29°47' W 092°11'0 0.0
2017-Sep-11 02:30N 29°47' W 092°11'0 0.0
2017-Sep-11 01:59N 29°47' W 092°11'0 0.0
2017-Sep-11 01:30N 29°47' W 092°11'0 0.0
2017-Sep-11 01:00N 29°47' W 092°11'0 0.0
2017-Sep-11 00:30N 29°47' W 092°11'0 0.0
2017-Sep-11 00:00N 29°47' W 092°11'0 0.0
2017-Sep-10 23:30N 29°47' W 092°11'0 0.0
2017-Sep-10 23:00N 29°47' W 092°11'0 0.0
2017-Sep-10 22:30N 29°47' W 092°11'0 0.0
2017-Sep-10 22:00N 29°47' W 092°11'0 0.0
2017-Sep-10 21:30N 29°47' W 092°11'0 0.0
2017-Sep-10 21:00N 29°47' W 092°11'0 0.0
2017-Sep-10 20:30N 29°47' W 092°11'0 0.0
2017-Sep-10 20:01N 29°47' W 092°11'0 0.0
2017-Sep-10 19:30N 29°47' W 092°11'0 0.0
2017-Sep-10 19:00N 29°47' W 092°11'0 0.0
2017-Sep-10 18:30N 29°47' W 092°11'0 0.0
2017-Sep-10 18:00N 29°47' W 092°11'0 0.0
2017-Sep-10 17:31N 29°47' W 092°11'0 0.0
2017-Sep-10 17:01N 29°47' W 092°11'0 0.0
2017-Sep-10 16:31N 29°47' W 092°11'0 0.0
2017-Sep-10 16:00N 29°47' W 092°11'0 0.0
2017-Sep-10 15:31N 29°47' W 092°11'0 0.0
2017-Sep-10 15:01N 29°47' W 092°11'0 0.0
2017-Sep-10 14:01N 29°47' W 092°11'0 0.0
2017-Sep-10 13:27N 29°47' W 092°11'0 0.0
2017-Sep-10 12:59N 29°47' W 092°11'0 0.0
2017-Sep-10 12:30N 29°47' W 092°11'0 0.0
2017-Sep-10 11:59N 29°47' W 092°11'0 0.0
2017-Sep-10 11:29N 29°47' W 092°11'0 0.0
2017-Sep-10 10:59N 29°47' W 092°11'0 0.0
2017-Sep-10 10:29N 29°47' W 092°11'0 0.0
2017-Sep-10 10:01N 29°47' W 092°11'0 0.0
2017-Sep-10 09:30N 29°47' W 092°11'0 0.0
2017-Sep-10 09:01N 29°47' W 092°11'0 0.0
2017-Sep-10 08:31N 29°47' W 092°11'0 0.0
2017-Sep-10 07:58N 29°47' W 092°11'0 0.0
2017-Sep-10 07:31N 29°47' W 092°11'0 0.0
2017-Sep-10 07:00N 29°47' W 092°11'0 0.0
2017-Sep-10 06:31N 29°47' W 092°11'0 0.0
2017-Sep-10 06:01N 29°47' W 092°11'0 0.0
2017-Sep-10 05:30N 29°47' W 092°11'0 0.0
2017-Sep-10 05:01N 29°47' W 092°11'0 0.0
2017-Sep-10 04:30N 29°47' W 092°11'0 0.0
2017-Sep-10 04:01N 29°47' W 092°11'0 0.0
2017-Sep-10 03:31N 29°47' W 092°11'0 0.0
2017-Sep-10 03:01N 29°47' W 092°11'0 0.0
2017-Sep-10 02:31N 29°47' W 092°11'0 0.0
2017-Sep-10 02:01N 29°47' W 092°11'0 0.0
2017-Sep-10 01:31N 29°47' W 092°11'0 0.0
2017-Sep-10 01:01N 29°47' W 092°11'0 0.0
2017-Sep-10 00:31N 29°47' W 092°11'0 0.0
2017-Sep-10 00:01N 29°47' W 092°11'0 0.0
2017-Sep-09 23:31N 29°47' W 092°11'0 0.0
2017-Sep-09 23:01N 29°47' W 092°11'0 0.0
2017-Sep-09 22:31N 29°47' W 092°11'0 0.0
2017-Sep-09 22:01N 29°47' W 092°11'0 0.0
2017-Sep-09 21:31N 29°47' W 092°11'0 0.0
2017-Sep-09 21:01N 29°47' W 092°11'0 0.0
2017-Sep-09 20:31N 29°47' W 092°11'0 0.0
2017-Sep-09 20:01N 29°47' W 092°11'0 0.0
2017-Sep-09 19:31N 29°47' W 092°11'0 0.0
2017-Sep-09 19:01N 29°47' W 092°11'0 0.0
2017-Sep-09 18:31N 29°47' W 092°11'0 0.0
2017-Sep-09 18:01N 29°47' W 092°11'0 0.0
2017-Sep-09 17:31N 29°47' W 092°11'0 0.0
2017-Sep-09 17:01N 29°47' W 092°11'0 0.0
2017-Sep-09 16:31N 29°47' W 092°11'0 0.0
2017-Sep-09 16:01N 29°47' W 092°11'0 0.0
2017-Sep-09 15:30N 29°47' W 092°11'0 0.0
2017-Sep-09 15:01N 29°47' W 092°11'0 0.0
2017-Sep-09 14:29N 29°47' W 092°11'0 0.0
2017-Sep-09 13:58N 29°47' W 092°11'0 0.0
2017-Sep-09 13:29N 29°47' W 092°11'0 0.0
2017-Sep-09 13:01N 29°47' W 092°11'0 0.0
2017-Sep-09 12:31N 29°47' W 092°11'0 0.0
2017-Sep-09 12:01N 29°47' W 092°11'0 0.0
2017-Sep-09 11:30N 29°47' W 092°11'0 0.0
2017-Sep-09 10:59N 29°47' W 092°11'0 0.0
2017-Sep-09 10:30N 29°47' W 092°11'0 0.0
2017-Sep-09 09:58N 29°47' W 092°11'0 0.0
2017-Sep-09 09:31N 29°47' W 092°11'0 0.0
2017-Sep-09 08:58N 29°47' W 092°11'0 0.0
2017-Sep-09 08:31N 29°47' W 092°11'0 0.0
2017-Sep-09 07:59N 29°47' W 092°11'0 0.0
2017-Sep-09 07:31N 29°47' W 092°11'0 0.0
2017-Sep-09 07:01N 29°47' W 092°11'0 0.0
2017-Sep-09 06:31N 29°47' W 092°11'0 0.0
2017-Sep-09 06:00N 29°47' W 092°11'0 0.0
2017-Sep-09 05:31N 29°47' W 092°11'0 0.0
2017-Sep-09 05:01N 29°47' W 092°11'0 0.0
2017-Sep-09 04:31N 29°47' W 092°11'0 0.0
2017-Sep-09 03:51N 29°47' W 092°11'0 0.0
2017-Sep-09 03:31N 29°47' W 092°11'0 0.0
2017-Sep-09 03:01N 29°47' W 092°11'0 0.0
2017-Sep-09 02:31N 29°47' W 092°11'0 0.0
2017-Sep-09 02:01N 29°47' W 092°11'0 0.0
2017-Sep-09 01:28N 29°47' W 092°11'0 0.0
2017-Sep-09 01:01N 29°47' W 092°11'0 0.0
2017-Sep-09 00:31N 29°47' W 092°11'0 0.0
2017-Sep-09 00:01N 29°47' W 092°11'0 0.0
2017-Sep-08 23:31N 29°47' W 092°11'0 0.0
2017-Sep-08 23:01N 29°47' W 092°11'0 0.0
2017-Sep-08 22:31N 29°47' W 092°11'0 0.0
2017-Sep-08 22:01N 29°47' W 092°11'0 0.0
2017-Sep-08 21:31N 29°47' W 092°11'0 0.0
2017-Sep-08 21:01N 29°47' W 092°11'0 0.0
2017-Sep-08 20:30N 29°47' W 092°11'0 0.0
2017-Sep-08 20:00N 29°47' W 092°11'0 0.0
2017-Sep-08 19:31N 29°47' W 092°11'0 0.0
2017-Sep-08 19:00N 29°47' W 092°11'0 0.0
2017-Sep-08 18:31N 29°47' W 092°11'0 0.0
2017-Sep-08 18:01N 29°47' W 092°11'0 0.0
2017-Sep-08 17:31N 29°47' W 092°11'0 0.0
2017-Sep-08 17:01N 29°47' W 092°11'0 0.0
2017-Sep-08 16:31N 29°47' W 092°11'0 0.0
2017-Sep-08 16:01N 29°47' W 092°11'0 0.0
2017-Sep-08 15:31N 29°47' W 092°11'0 0.0
2017-Sep-08 15:00N 29°47' W 092°11'0 0.0
2017-Sep-08 14:31N 29°47' W 092°11'0 0.0
2017-Sep-08 14:01N 29°47' W 092°11'0 0.0
2017-Sep-08 13:31N 29°47' W 092°11'0 0.0
2017-Sep-08 13:01N 29°47' W 092°11'0 0.0
2017-Sep-08 12:31N 29°47' W 092°11'0 0.0
2017-Sep-08 12:01N 29°47' W 092°11'0 0.0
2017-Sep-08 11:31N 29°47' W 092°11'0 0.0
2017-Sep-08 11:00N 29°47' W 092°11'0 0.0
2017-Sep-08 10:31N 29°47' W 092°11'0 0.0
2017-Sep-08 10:00N 29°47' W 092°11'0 0.0
2017-Sep-08 09:31N 29°47' W 092°11'0 0.0
2017-Sep-08 09:01N 29°47' W 092°11'0 0.0
2017-Sep-08 08:29N 29°47' W 092°11'0 0.0
2017-Sep-08 08:00N 29°47' W 092°11'0 0.0
2017-Sep-08 07:31N 29°47' W 092°11'0 0.0
2017-Sep-08 07:00N 29°47' W 092°11'0 0.0
2017-Sep-08 06:31N 29°47' W 092°11'0 0.0
2017-Sep-08 06:01N 29°47' W 092°11'0 0.0
2017-Sep-08 05:31N 29°47' W 092°11'0 0.0
2017-Sep-08 05:01N 29°47' W 092°11'0 0.0
2017-Sep-08 04:31N 29°47' W 092°11'0 0.0
2017-Sep-08 04:00N 29°47' W 092°11'0 0.0
2017-Sep-08 03:30N 29°47' W 092°11'0 0.0
2017-Sep-08 03:01N 29°47' W 092°11'0 0.0
2017-Sep-08 02:31N 29°47' W 092°11'0 0.0
2017-Sep-08 02:01N 29°47' W 092°11'0 0.0
2017-Sep-08 01:31N 29°47' W 092°11'0 0.0
2017-Sep-08 01:00N 29°47' W 092°11'0 0.0
2017-Sep-08 00:30N 29°47' W 092°11'0 0.0
2017-Sep-08 00:00N 29°47' W 092°11'0 0.0
2017-Sep-07 23:30N 29°47' W 092°11'0 0.0
2017-Sep-07 23:00N 29°47' W 092°11'0 0.0
2017-Sep-07 22:30N 29°47' W 092°11'0 0.0
2017-Sep-07 22:00N 29°47' W 092°11'0 0.0
2017-Sep-07 21:30N 29°47' W 092°11'0 0.0
2017-Sep-07 21:00N 29°47' W 092°11'0 0.0
2017-Sep-07 20:30N 29°47' W 092°11'0 0.0
2017-Sep-07 20:00N 29°47' W 092°11'0 0.0
2017-Sep-07 19:30N 29°47' W 092°11'0 0.0
2017-Sep-07 19:00N 29°47' W 092°11'0 0.0
2017-Sep-07 18:30N 29°47' W 092°11'0 0.0
2017-Sep-07 18:00N 29°47' W 092°11'0 0.0
2017-Sep-07 17:30N 29°47' W 092°11'0 0.0
2017-Sep-07 17:00N 29°47' W 092°11'0 0.0
2017-Sep-07 16:30N 29°47' W 092°11'0 0.0
2017-Sep-07 16:00N 29°47' W 092°11'0 0.0
2017-Sep-07 15:30N 29°47' W 092°11'0 0.0
2017-Sep-07 15:00N 29°47' W 092°11'0 0.0
2017-Sep-07 14:30N 29°47' W 092°11'0 0.0
2017-Sep-07 13:57N 29°47' W 092°11'0 0.0
2017-Sep-07 13:30N 29°47' W 092°11'0 0.0
2017-Sep-07 13:00N 29°47' W 092°11'0 0.0
2017-Sep-07 12:30N 29°47' W 092°11'0 0.0
2017-Sep-07 12:00N 29°47' W 092°11'0 0.0
2017-Sep-07 11:30N 29°47' W 092°11'0 0.0
2017-Sep-07 11:00N 29°47' W 092°11'0 0.0
2017-Sep-07 10:30N 29°47' W 092°11'0 0.0
2017-Sep-07 10:00N 29°47' W 092°11'0 0.0
2017-Sep-07 09:30N 29°47' W 092°11'0 0.0
2017-Sep-07 09:00N 29°47' W 092°11'0 0.0
2017-Sep-07 08:30N 29°47' W 092°11'0 0.0
2017-Sep-07 08:00N 29°47' W 092°11'0 0.0
2017-Sep-07 07:30N 29°47' W 092°11'0 0.0
2017-Sep-07 07:00N 29°47' W 092°11'0 0.0
2017-Sep-07 06:30N 29°47' W 092°11'0 0.0
2017-Sep-07 06:00N 29°47' W 092°11'0 0.0
2017-Sep-07 05:30N 29°47' W 092°11'0 0.0
2017-Sep-07 05:00N 29°47' W 092°11'0 0.0
2017-Sep-07 04:30N 29°47' W 092°11'0 0.0
2017-Sep-07 04:00N 29°47' W 092°11'0 0.0
2017-Sep-07 03:30N 29°47' W 092°11'0 0.0
2017-Sep-07 03:00N 29°47' W 092°11'0 0.0
2017-Sep-07 02:30N 29°47' W 092°11'0 0.0
2017-Sep-07 02:00N 29°47' W 092°11'0 0.0
2017-Sep-07 01:30N 29°47' W 092°11'0 0.0
2017-Sep-07 01:00N 29°47' W 092°11'0 0.0
2017-Sep-07 00:30N 29°47' W 092°11'0 0.0
2017-Sep-07 00:00N 29°47' W 092°11'0 0.0
2017-Sep-06 23:30N 29°47' W 092°11'0 0.0
2017-Sep-06 23:00N 29°47' W 092°11'0 0.0
2017-Sep-06 22:30N 29°47' W 092°11'0 0.0
2017-Sep-06 22:00N 29°47' W 092°11'0 0.0
2017-Sep-06 21:30N 29°47' W 092°11'0 0.3
2017-Sep-06 21:00N 29°47' W 092°11'0 0.0
2017-Sep-06 20:30N 29°47' W 092°11'0 0.0
2017-Sep-06 20:00N 29°47' W 092°11'0 0.0
2017-Sep-06 19:30N 29°47' W 092°11'0 0.0
2017-Sep-06 19:00N 29°47' W 092°11'0 0.5
2017-Sep-06 18:30N 29°47' W 092°11'0 0.0
2017-Sep-06 18:00N 29°47' W 092°11'0 0.0
2017-Sep-06 17:30N 29°47' W 092°11'0 0.0
2017-Sep-06 17:00N 29°47' W 092°11'0 0.0
2017-Sep-06 16:30N 29°47' W 092°11'0 0.0
2017-Sep-06 16:00N 29°47' W 092°11'0 0.0
2017-Sep-06 15:30N 29°47' W 092°11'0 0.0
2017-Sep-06 15:00N 29°47' W 092°11'0 0.0
2017-Sep-06 14:30N 29°47' W 092°11'0 0.0
2017-Sep-06 14:00N 29°47' W 092°11'0 0.0
2017-Sep-06 13:30N 29°47' W 092°11'0 0.0
2017-Sep-06 13:00N 29°47' W 092°11'0 0.0
2017-Sep-06 12:30N 29°47' W 092°11'0 0.0
2017-Sep-06 12:00N 29°47' W 092°11'0 0.0
2017-Sep-06 11:30N 29°47' W 092°11'0 0.0
2017-Sep-06 11:00N 29°47' W 092°11'1 2.8
2017-Sep-06 10:30N 29°46' W 092°12'4 8.0
2017-Sep-06 10:00N 29°43' W 092°15'4 7.5
2017-Sep-06 09:30N 29°39' W 092°16'  

Dump ship's entire track history